createdAt,value
2022-11-05T00:00:04.572Z,945.06
2022-11-05T00:05:03.303Z,945.08
2022-11-05T00:10:05.304Z,945.08
2022-11-05T00:15:03.261Z,945.14
2022-11-05T00:20:04.549Z,945.20
2022-11-05T00:25:03.201Z,945.23
2022-11-05T00:30:05.540Z,945.23
2022-11-05T00:35:03.224Z,945.27
2022-11-05T00:40:04.502Z,945.27
2022-11-05T00:45:03.296Z,945.31
2022-11-05T00:50:04.430Z,945.33
2022-11-05T00:55:03.218Z,945.35
2022-11-05T01:00:04.494Z,945.37
2022-11-05T01:05:03.137Z,945.35
2022-11-05T01:10:04.378Z,945.41
2022-11-05T01:15:03.237Z,945.43
2022-11-05T01:20:05.253Z,945.41
2022-11-05T01:25:03.287Z,945.43
2022-11-05T01:30:04.469Z,945.41
2022-11-05T01:35:03.304Z,945.37
2022-11-05T01:40:04.468Z,945.35
2022-11-05T01:45:03.367Z,945.31
2022-11-05T01:50:09.616Z,945.29
2022-11-05T01:55:03.147Z,945.31
2022-11-05T02:00:04.371Z,945.41
2022-11-05T16:45:03.264Z,944.49
2022-11-05T16:50:04.370Z,944.41
2022-11-05T16:55:03.288Z,944.31
2022-11-05T17:00:04.512Z,944.17
2022-11-05T17:05:03.255Z,944.12
2022-11-05T17:10:04.512Z,944.08
2022-11-05T17:15:03.161Z,944.06
2022-11-05T17:20:04.514Z,943.98
2022-11-05T17:25:03.317Z,943.90
2022-11-05T17:30:04.385Z,943.86
2022-11-05T17:35:03.365Z,943.80
2022-11-05T17:40:04.423Z,943.66
2022-11-05T17:45:03.176Z,943.51
2022-11-05T17:50:05.425Z,943.39
2022-11-05T17:55:03.161Z,943.33
2022-11-05T18:00:04.540Z,943.29
2022-11-05T18:05:03.093Z,943.31
2022-11-05T18:10:04.532Z,943.25
2022-11-05T18:15:03.156Z,943.21
2022-11-05T18:20:04.404Z,943.16
2022-11-05T18:25:03.245Z,943.08
2022-11-05T18:30:05.609Z,943.02
2022-11-05T18:35:03.090Z,943.00
2022-11-05T18:40:04.406Z,942.90
2022-11-05T18:45:03.311Z,942.82
2022-11-05T18:50:04.429Z,942.82
2022-11-05T18:55:03.238Z,942.80
2022-11-05T19:00:04.502Z,942.76
2022-11-05T19:10:04.384Z,942.66
2022-11-05T19:15:03.465Z,942.65
2022-11-05T19:20:04.402Z,942.68
2022-11-05T19:25:03.219Z,942.70
2022-11-05T19:30:04.471Z,942.68
2022-11-05T19:35:03.133Z,942.66
2022-11-05T19:40:04.488Z,942.63
2022-11-05T19:45:16.991Z,942.65
2022-11-05T19:50:05.684Z,942.65
2022-11-05T19:55:05.569Z,942.63
2022-11-05T20:00:04.348Z,942.66
2022-11-05T20:05:03.123Z,942.66
2022-11-05T20:10:04.495Z,942.63
2022-11-05T20:15:03.150Z,942.65
2022-11-05T20:20:04.519Z,942.66
2022-11-05T20:25:03.192Z,942.66
2022-11-05T20:30:04.395Z,942.68
2022-11-05T20:35:03.180Z,942.72
2022-11-05T20:40:04.401Z,942.78
2022-11-05T20:45:03.223Z,942.76
2022-11-05T20:50:04.515Z,942.80
2022-11-05T20:55:03.159Z,942.80
2022-11-05T21:00:04.496Z,942.86
2022-11-05T21:05:03.217Z,942.94
2022-11-05T21:10:04.439Z,942.98
2022-11-05T21:15:03.180Z,943.00
2022-11-05T21:20:04.484Z,943.04
2022-11-05T21:25:03.196Z,943.04
2022-11-05T21:30:05.424Z,943.06
2022-11-05T21:35:03.349Z,943.10
2022-11-05T21:40:04.568Z,943.08
2022-11-05T21:45:03.153Z,943.16
2022-11-05T21:50:04.492Z,943.18
2022-11-05T21:55:03.319Z,943.21
2022-11-05T22:00:04.533Z,943.18
2022-11-05T22:05:03.232Z,943.20
2022-11-05T22:10:04.057Z,943.25
2022-11-05T22:15:03.204Z,943.29
2022-11-05T22:20:04.500Z,943.35
2022-11-05T22:25:04.321Z,943.37
2022-11-05T22:30:04.438Z,943.45
2022-11-05T22:35:03.205Z,943.51
2022-11-05T22:40:04.416Z,943.61
2022-11-05T22:45:03.233Z,943.65
2022-11-05T22:50:04.373Z,943.68
2022-11-05T22:55:03.210Z,943.68
2022-11-05T23:00:04.436Z,943.70
2022-11-05T23:05:03.247Z,943.74
2022-11-05T23:10:04.462Z,943.78
2022-11-05T23:15:03.180Z,943.88
2022-11-05T23:20:04.567Z,943.96
2022-11-05T23:25:03.198Z,944.00
2022-11-05T23:30:04.695Z,944.06
2022-11-05T23:35:03.280Z,944.10
2022-11-05T23:40:04.449Z,944.12
2022-11-05T23:45:03.244Z,944.12
2022-11-05T23:50:04.475Z,944.15
2022-11-05T23:55:03.169Z,944.17
